createdAt,value
2022-12-01T00:00:38.896Z,62.38
2022-12-01T00:03:24.968Z,70.97
2022-12-01T00:06:16.331Z,58.65
2022-12-01T00:09:20.612Z,61.30
2022-12-01T00:12:06.736Z,56.95
2022-12-01T00:15:01.120Z,57.30
2022-12-01T00:17:47.798Z,58.47
2022-12-01T00:20:34.653Z,64.07
2022-12-01T00:23:19.839Z,61.28
2022-12-01T00:26:05.769Z,55.53
2022-12-01T00:28:53.037Z,58.47
2022-12-01T00:31:38.720Z,60.65
2022-12-01T00:34:25.533Z,55.05
2022-12-01T00:37:11.124Z,54.75
2022-12-01T00:39:57.677Z,58.22
2022-12-01T00:42:43.055Z,51.70
2022-12-01T00:45:28.360Z,52.05
2022-12-01T00:48:13.769Z,58.75
2022-12-01T00:50:59.488Z,56.13
2022-12-01T00:53:44.749Z,56.13
2022-12-01T00:56:30.208Z,57.65
2022-12-01T00:59:15.791Z,56.78
2022-12-01T01:02:01.941Z,51.85
2022-12-01T01:04:47.847Z,50.80
2022-12-01T01:07:33.289Z,56.15
2022-12-01T01:10:18.778Z,54.10
2022-12-01T01:13:04.342Z,51.17
2022-12-01T01:16:08.666Z,54.80
2022-12-01T01:18:55.430Z,49.40
2022-12-01T01:21:41.210Z,52.47
2022-12-01T01:24:26.631Z,55.05
2022-12-01T01:27:12.085Z,51.92
2022-12-01T01:29:57.639Z,52.13
2022-12-01T01:32:43.185Z,51.00
2022-12-01T01:35:28.669Z,52.35
2022-12-01T01:38:14.261Z,54.85
2022-12-01T01:40:59.877Z,49.33
2022-12-01T01:43:57.760Z,52.15
2022-12-01T01:46:43.368Z,50.92
2022-12-01T01:49:28.916Z,50.58
2022-12-01T01:52:15.308Z,53.50
2022-12-01T01:55:01.186Z,52.15
2022-12-01T01:57:47.109Z,55.80
2022-12-01T02:00:32.695Z,52.15
2022-12-01T02:03:19.107Z,53.15
2022-12-01T02:06:06.383Z,57.58
2022-12-01T02:08:51.820Z,53.30
2022-12-01T02:11:59.646Z,59.60
2022-12-01T02:15:10.476Z,57.33
2022-12-01T02:18:31.612Z,48.70
2022-12-01T02:21:27.710Z,51.70
2022-12-01T02:24:51.835Z,64.43
2022-12-01T02:28:06.055Z,52.00
2022-12-01T02:30:57.630Z,52.97
2022-12-01T02:34:08.357Z,54.97
2022-12-01T02:37:21.127Z,54.88
2022-12-01T02:40:16.257Z,49.70
2022-12-01T02:43:17.530Z,58.33
2022-12-01T02:46:26.128Z,57.65
2022-12-01T02:49:19.627Z,48.40
2022-12-01T02:52:07.055Z,50.85
2022-12-01T02:54:53.236Z,52.10
2022-12-01T02:57:38.421Z,49.25
2022-12-01T03:00:24.006Z,53.88
2022-12-01T03:03:28.261Z,46.85
2022-12-01T03:06:31.582Z,42.17
2022-12-01T03:09:22.904Z,46.50
2022-12-01T03:12:20.507Z,49.80
2022-12-01T03:15:16.474Z,47.58
2022-12-01T03:18:27.903Z,49.90
2022-12-01T03:21:37.785Z,43.60
2022-12-01T03:24:31.709Z,47.15
2022-12-01T03:27:22.655Z,51.33
2022-12-01T03:30:11.876Z,46.05
2022-12-01T03:33:05.774Z,45.00
2022-12-01T03:35:57.351Z,43.33
2022-12-01T03:38:46.857Z,45.88
2022-12-01T03:41:37.916Z,46.45
2022-12-01T03:44:27.036Z,44.45
2022-12-01T03:47:20.801Z,45.78
2022-12-01T03:50:08.046Z,41.13
2022-12-01T03:53:19.359Z,44.10
2022-12-01T03:56:07.665Z,43.47
2022-12-01T03:58:56.985Z,44.20
2022-12-01T04:01:42.369Z,40.35
2022-12-01T04:04:27.777Z,40.03
2022-12-01T04:07:14.303Z,42.50
2022-12-01T04:09:59.524Z,42.65
2022-12-01T04:12:45.264Z,45.88
2022-12-01T04:15:30.560Z,39.30
2022-12-01T04:18:16.143Z,40.97
2022-12-01T04:21:01.594Z,42.67
2022-12-01T04:24:02.058Z,40.75
2022-12-01T04:26:47.634Z,41.95
2022-12-01T04:29:33.154Z,44.83
2022-12-01T04:32:18.651Z,41.40
2022-12-01T04:35:04.296Z,39.28
2022-12-01T04:37:49.866Z,50.28
2022-12-01T04:40:35.462Z,45.17
2022-12-01T04:43:20.859Z,56.58
2022-12-01T04:46:07.454Z,47.55
2022-12-01T04:48:52.879Z,47.25
2022-12-01T04:51:38.388Z,41.42
2022-12-01T04:54:24.582Z,47.70
2022-12-01T04:57:09.750Z,43.80
2022-12-01T04:59:55.225Z,41.67
2022-12-01T05:02:43.533Z,39.50
2022-12-01T05:05:30.309Z,48.90
2022-12-01T05:08:15.681Z,42.97
2022-12-01T05:11:01.641Z,42.33
2022-12-01T05:13:49.084Z,43.65
2022-12-01T05:16:35.117Z,44.33
2022-12-01T05:19:39.307Z,37.03
2022-12-01T05:25:30.477Z,44.17
2022-12-01T05:28:16.173Z,46.28
2022-12-01T05:31:01.709Z,37.33
2022-12-01T05:33:47.095Z,38.05
2022-12-01T05:36:33.071Z,40.92
2022-12-01T05:39:18.169Z,44.95
2022-12-01T05:42:03.934Z,39.15
2022-12-01T05:44:49.482Z,40.28
2022-12-01T05:47:34.972Z,40.00
2022-12-01T05:50:20.526Z,42.10
2022-12-01T05:53:06.329Z,39.35
2022-12-01T05:55:55.263Z,40.35
2022-12-01T05:58:40.633Z,43.28
2022-12-01T06:01:26.039Z,40.55
2022-12-01T06:04:11.579Z,51.30
2022-12-01T06:06:57.218Z,40.00
2022-12-01T06:09:42.760Z,39.33
2022-12-01T06:12:28.823Z,38.95
2022-12-01T06:15:14.434Z,40.38
2022-12-01T06:18:00.089Z,39.80
2022-12-01T06:20:45.486Z,42.00
2022-12-01T06:23:31.204Z,39.97
2022-12-01T06:26:16.838Z,36.92
2022-12-01T06:29:01.964Z,40.80
2022-12-01T06:31:47.549Z,38.97
2022-12-01T06:34:32.881Z,38.95
2022-12-01T06:37:18.779Z,41.90
2022-12-01T06:40:04.729Z,38.78
2022-12-01T06:42:50.050Z,38.67
2022-12-01T06:45:36.248Z,44.08
2022-12-01T06:48:22.070Z,40.53
2022-12-01T06:51:07.684Z,37.17
2022-12-01T06:53:54.907Z,47.83
2022-12-01T06:56:42.893Z,38.83
2022-12-01T06:59:28.371Z,36.30
2022-12-01T07:02:14.037Z,38.88
2022-12-01T07:04:59.420Z,48.33
2022-12-01T07:07:45.003Z,38.28
2022-12-01T07:10:30.605Z,47.70
2022-12-01T07:13:16.089Z,45.85
2022-12-01T07:16:03.330Z,45.42
2022-12-01T07:18:49.141Z,40.92
2022-12-01T07:21:34.704Z,43.30
2022-12-01T07:24:20.628Z,36.65
2022-12-01T07:27:05.721Z,31.08
2022-12-01T07:29:51.504Z,40.47
2022-12-01T07:32:37.574Z,42.42
2022-12-01T07:35:23.526Z,40.15
2022-12-01T07:38:08.963Z,47.65
2022-12-01T07:40:54.372Z,40.50
2022-12-01T07:43:40.584Z,42.88
2022-12-01T07:46:28.337Z,36.55
2022-12-01T07:49:15.599Z,36.25
2022-12-01T07:52:01.390Z,37.03
2022-12-01T07:54:47.039Z,37.35
2022-12-01T07:57:32.500Z,29.73
2022-12-01T08:00:18.395Z,35.47
2022-12-01T08:03:04.206Z,28.77
2022-12-01T08:06:00.441Z,28.95
2022-12-01T08:08:46.625Z,26.80
2022-12-01T08:11:32.088Z,25.52
2022-12-01T08:14:17.509Z,22.42
2022-12-01T08:17:03.184Z,27.67
2022-12-01T08:19:48.886Z,25.92
2022-12-01T08:22:34.950Z,26.98
2022-12-01T08:25:20.231Z,29.98
2022-12-01T08:28:05.892Z,26.77
2022-12-01T08:30:51.427Z,29.13
2022-12-01T08:33:39.119Z,22.92
2022-12-01T08:36:25.216Z,22.42
2022-12-01T08:39:11.216Z,30.40
2022-12-01T08:41:56.773Z,20.02
2022-12-01T08:44:42.217Z,26.02
2022-12-01T08:47:28.890Z,26.90
2022-12-01T08:50:14.448Z,28.45
2022-12-01T08:53:00.092Z,25.70
2022-12-01T08:55:45.505Z,23.00
2022-12-01T08:58:30.943Z,23.13
2022-12-01T09:01:20.060Z,29.25
2022-12-01T09:04:06.494Z,21.42
2022-12-01T09:06:54.084Z,20.33
2022-12-01T09:09:39.333Z,20.40
2022-12-01T09:12:25.001Z,18.20
2022-12-01T09:15:10.910Z,19.63
2022-12-01T09:17:56.995Z,18.33
2022-12-01T09:20:42.532Z,19.38
2022-12-01T09:23:28.319Z,21.92
2022-12-01T09:26:18.252Z,18.63
2022-12-01T09:29:07.529Z,19.45
2022-12-01T09:31:56.947Z,19.42
2022-12-01T09:34:42.119Z,17.17
2022-12-01T09:37:27.694Z,19.40
2022-12-01T09:40:15.481Z,19.42
2022-12-01T09:43:04.584Z,18.77
2022-12-01T09:45:59.659Z,20.17
2022-12-01T09:48:48.033Z,18.58
2022-12-01T09:51:36.255Z,19.27
2022-12-01T09:54:21.916Z,19.00
2022-12-01T09:57:28.102Z,19.65
2022-12-01T10:00:19.803Z,17.77
2022-12-01T10:03:30.086Z,21.15
2022-12-01T10:06:31.931Z,22.80
2022-12-01T10:09:27.542Z,26.73
2022-12-01T10:12:22.530Z,25.23
2022-12-01T10:15:27.561Z,23.42
2022-12-01T10:18:34.214Z,25.27
2022-12-01T10:21:57.428Z,25.05
2022-12-01T10:24:42.602Z,22.10
2022-12-01T10:28:04.153Z,22.80
2022-12-01T10:30:51.740Z,19.80
2022-12-01T10:33:49.966Z,24.95
2022-12-01T10:36:35.532Z,28.42
2022-12-01T10:39:30.663Z,25.30
2022-12-01T10:42:37.714Z,29.60
2022-12-01T10:45:24.593Z,26.98
2022-12-01T10:48:17.701Z,24.63
2022-12-01T10:54:11.662Z,24.42
2022-12-01T10:56:58.988Z,27.85
2022-12-01T10:59:57.974Z,27.88
2022-12-01T11:02:43.788Z,25.90
2022-12-01T11:05:34.595Z,28.35
2022-12-01T11:08:30.222Z,27.77
2022-12-01T11:11:26.329Z,30.73
2022-12-01T11:14:20.607Z,29.42
2022-12-01T11:17:31.328Z,25.27
2022-12-01T11:20:33.830Z,30.33
2022-12-01T11:23:24.345Z,27.90
2022-12-01T11:26:21.088Z,27.38
2022-12-01T11:29:20.765Z,32.80
2022-12-01T11:32:30.274Z,29.95
2022-12-01T11:35:21.245Z,31.65
2022-12-01T11:41:45.289Z,30.77
2022-12-01T11:44:50.838Z,32.88
2022-12-01T11:47:58.571Z,31.63
2022-12-01T11:50:59.517Z,31.77
2022-12-01T11:53:45.369Z,29.40
2022-12-01T11:56:31.710Z,32.03
2022-12-01T11:59:24.496Z,30.52
2022-12-01T12:02:28.381Z,27.83
2022-12-01T12:05:37.983Z,30.33
2022-12-01T12:09:00.664Z,26.90
2022-12-01T12:12:07.289Z,26.77
2022-12-01T12:15:12.669Z,25.88
2022-12-01T12:18:28.730Z,24.15
2022-12-01T12:21:32.064Z,26.25
2022-12-01T12:24:48.870Z,26.33
2022-12-01T12:27:58.887Z,26.25
2022-12-01T12:31:18.657Z,26.70
2022-12-01T12:34:23.234Z,24.52
2022-12-01T12:37:32.540Z,27.48
2022-12-01T12:40:36.005Z,24.88
2022-12-01T12:43:54.881Z,26.92
2022-12-01T12:47:01.570Z,28.20
2022-12-01T12:50:01.352Z,28.55
2022-12-01T12:52:54.716Z,30.30
2022-12-01T12:55:50.641Z,28.20
2022-12-01T12:58:45.581Z,28.05
2022-12-01T13:01:38.514Z,26.30
2022-12-01T13:04:33.468Z,28.80
2022-12-01T13:07:49.411Z,30.95
2022-12-01T13:10:38.086Z,26.85
2022-12-01T13:13:46.806Z,28.75
2022-12-01T13:16:45.664Z,28.17
2022-12-01T13:19:39.348Z,26.33
2022-12-01T13:22:32.129Z,27.65
2022-12-01T13:25:27.829Z,29.73
2022-12-01T13:28:24.335Z,31.27
2022-12-01T13:31:14.238Z,34.38
2022-12-01T13:34:05.159Z,33.53
2022-12-01T13:36:52.062Z,28.58
2022-12-01T13:39:39.816Z,32.05
2022-12-01T13:42:26.994Z,30.15
2022-12-01T13:45:20.050Z,29.08
2022-12-01T13:48:06.890Z,28.88
2022-12-01T13:51:01.605Z,30.25
2022-12-01T13:54:29.506Z,29.83
2022-12-01T13:57:27.154Z,32.60
2022-12-01T14:00:27.177Z,33.05
2022-12-01T14:03:12.647Z,35.20
2022-12-01T14:06:10.469Z,33.30
2022-12-01T14:09:16.740Z,32.40
2022-12-01T14:12:18.520Z,33.38
2022-12-01T14:15:34.270Z,34.25
2022-12-01T14:18:33.191Z,30.60
2022-12-01T14:21:42.236Z,32.85
2022-12-01T14:24:41.539Z,34.85
2022-12-01T14:27:41.646Z,35.47
2022-12-01T14:30:39.466Z,34.75
2022-12-01T14:33:47.556Z,44.88
2022-12-01T14:36:43.959Z,41.75
2022-12-01T14:39:36.179Z,48.20
2022-12-01T14:42:49.486Z,46.50
2022-12-01T14:45:50.801Z,13.23
2022-12-01T14:48:42.196Z,12.07
2022-12-01T14:51:33.213Z,13.85
2022-12-01T14:54:33.886Z,12.82
2022-12-01T14:57:24.847Z,12.25
2022-12-01T15:00:23.287Z,11.68
2022-12-01T15:03:14.366Z,14.73
2022-12-01T15:06:00.261Z,12.00
2022-12-01T15:09:04.089Z,14.30
2022-12-01T15:11:58.767Z,12.77
2022-12-01T15:14:49.627Z,12.83
2022-12-01T15:17:37.136Z,13.60
2022-12-01T15:20:43.582Z,14.52
2022-12-01T15:23:31.809Z,12.98
2022-12-01T15:26:22.621Z,14.95
2022-12-01T15:29:31.598Z,14.20
2022-12-01T15:32:21.120Z,14.68
2022-12-01T15:35:15.489Z,12.88
2022-12-01T15:38:02.406Z,16.23
2022-12-01T15:43:58.676Z,34.67
2022-12-01T15:46:44.507Z,34.78
2022-12-01T15:49:33.005Z,44.17
2022-12-01T15:52:18.749Z,42.90
2022-12-01T15:55:05.174Z,44.20
2022-12-01T15:57:51.614Z,46.30
2022-12-01T16:00:36.865Z,46.38
2022-12-01T16:03:22.452Z,51.90
2022-12-01T16:06:12.370Z,51.72
2022-12-01T16:09:07.039Z,52.45
2022-12-01T16:12:04.396Z,58.22
2022-12-01T16:14:49.932Z,53.15
2022-12-01T16:17:45.664Z,56.55
2022-12-01T16:20:40.601Z,64.53
2022-12-01T16:23:26.741Z,56.05
2022-12-01T16:26:12.467Z,57.92
2022-12-01T16:28:58.831Z,57.92
2022-12-01T16:32:12.517Z,63.65
2022-12-01T16:34:52.561Z,66.10
2022-12-01T16:37:38.148Z,69.28
2022-12-01T16:40:24.471Z,59.17
2022-12-01T16:43:16.954Z,59.08
2022-12-01T16:46:06.631Z,63.90
2022-12-01T16:48:52.030Z,64.00
2022-12-01T16:51:54.672Z,60.58
2022-12-01T16:54:41.931Z,64.60
2022-12-01T16:57:27.805Z,70.55
2022-12-01T17:00:14.204Z,62.38
2022-12-01T17:03:00.298Z,75.10
2022-12-01T17:05:46.783Z,67.03
2022-12-01T17:08:32.211Z,76.85
2022-12-01T17:11:17.981Z,76.55
2022-12-01T17:14:03.609Z,75.13
2022-12-01T17:16:49.848Z,78.13
2022-12-01T17:19:35.604Z,83.82
2022-12-01T17:22:20.840Z,75.57
2022-12-01T17:25:09.552Z,76.20
2022-12-01T17:27:55.311Z,79.90
2022-12-01T17:30:40.508Z,78.45
2022-12-01T17:33:25.977Z,91.43
2022-12-01T17:36:13.564Z,99.95
2022-12-01T17:38:59.028Z,91.47
2022-12-01T17:41:44.678Z,86.05
2022-12-01T17:44:29.823Z,94.63
2022-12-01T17:47:15.771Z,96.93
2022-12-01T17:50:01.863Z,92.00
2022-12-01T17:52:47.323Z,91.32
2022-12-01T17:55:32.940Z,83.82
2022-12-01T17:58:21.428Z,76.97
2022-12-01T18:01:16.064Z,77.00
2022-12-01T18:04:01.868Z,79.68
2022-12-01T18:06:53.580Z,79.07
2022-12-01T18:09:39.716Z,72.57
2022-12-01T18:12:24.911Z,71.47
2022-12-01T18:15:12.216Z,59.65
2022-12-01T18:17:57.748Z,47.88
2022-12-01T18:20:44.245Z,56.92
2022-12-01T18:23:29.780Z,52.80
2022-12-01T18:26:16.345Z,53.15
2022-12-01T18:29:08.108Z,52.05
2022-12-01T18:31:55.725Z,57.97
2022-12-01T18:34:41.336Z,50.85
2022-12-01T18:37:26.695Z,46.70
2022-12-01T18:40:12.880Z,44.92
2022-12-01T18:42:58.178Z,48.20
2022-12-01T18:45:43.619Z,49.88
2022-12-01T18:48:29.181Z,48.58
2022-12-01T18:51:15.120Z,59.15
2022-12-01T18:54:01.896Z,52.47
2022-12-01T18:56:52.806Z,52.15
2022-12-01T18:59:38.701Z,55.40
2022-12-01T19:02:24.449Z,52.92
2022-12-01T19:05:11.092Z,56.97
2022-12-01T19:07:57.614Z,55.78
2022-12-01T19:10:43.283Z,57.10
2022-12-01T19:13:30.989Z,57.65
2022-12-01T19:16:19.262Z,57.60
2022-12-01T19:19:05.029Z,48.22
2022-12-01T19:21:51.159Z,55.55
2022-12-01T19:24:37.010Z,57.80
2022-12-01T19:27:22.428Z,57.70
2022-12-01T19:30:08.241Z,60.88
2022-12-01T19:32:53.917Z,63.83
2022-12-01T19:35:39.337Z,55.42
2022-12-01T19:38:24.924Z,54.60
2022-12-01T19:41:11.335Z,54.17
2022-12-01T19:43:58.365Z,53.47
2022-12-01T19:46:44.029Z,53.13
2022-12-01T19:49:29.697Z,51.20
2022-12-01T19:52:15.346Z,51.67
2022-12-01T19:55:01.432Z,53.55
2022-12-01T19:57:51.623Z,54.88
2022-12-01T20:00:36.937Z,55.47
2022-12-01T20:03:22.418Z,54.25
2022-12-01T20:06:14.494Z,54.90
2022-12-01T20:09:01.848Z,54.58
2022-12-01T20:11:51.627Z,58.83
2022-12-01T20:14:37.813Z,54.15
2022-12-01T20:17:24.104Z,54.42
2022-12-01T20:20:11.120Z,55.70
2022-12-01T20:22:56.321Z,52.67
2022-12-01T20:25:41.803Z,54.47
2022-12-01T20:28:27.610Z,54.03
2022-12-01T20:31:16.546Z,56.55
2022-12-01T20:34:05.461Z,56.80
2022-12-01T20:36:51.943Z,59.58
2022-12-01T20:39:39.790Z,57.92
2022-12-01T20:42:25.514Z,57.78
2022-12-01T20:45:11.092Z,73.20
2022-12-01T20:47:56.766Z,65.43
2022-12-01T20:50:42.164Z,61.95
2022-12-01T20:53:27.942Z,61.78
2022-12-01T20:56:14.511Z,65.03
2022-12-01T20:59:00.367Z,61.60
2022-12-01T21:01:45.744Z,63.83
2022-12-01T21:04:31.609Z,56.70
2022-12-01T21:07:17.486Z,59.75
2022-12-01T21:10:04.006Z,60.90
2022-12-01T21:13:11.933Z,60.72
2022-12-01T21:16:03.609Z,59.70
2022-12-01T21:19:06.465Z,64.60
2022-12-01T21:21:52.101Z,66.20
2022-12-01T21:24:43.345Z,67.90
2022-12-01T21:27:29.817Z,64.30
2022-12-01T21:30:26.330Z,60.22
2022-12-01T21:33:34.138Z,61.17
2022-12-01T21:36:22.300Z,74.28
2022-12-01T21:39:16.887Z,66.60
2022-12-01T21:42:18.237Z,66.57
2022-12-01T21:45:33.533Z,68.57
2022-12-01T21:48:23.077Z,65.50
2022-12-01T21:51:26.471Z,67.07
2022-12-01T21:56:59.128Z,63.75
2022-12-01T21:59:47.903Z,73.85
2022-12-01T22:02:51.169Z,71.90
2022-12-01T22:05:40.827Z,66.68
2022-12-01T22:08:38.584Z,65.93
2022-12-01T22:11:28.959Z,61.95
2022-12-01T22:14:37.763Z,64.15
2022-12-01T22:17:24.117Z,64.57
2022-12-01T22:20:22.205Z,60.22
2022-12-01T22:23:12.954Z,59.05
2022-12-01T22:25:58.672Z,61.80
2022-12-01T22:28:52.186Z,58.70
2022-12-01T22:31:41.808Z,58.72
2022-12-01T22:34:27.143Z,60.83
2022-12-01T22:37:43.498Z,64.25
2022-12-01T22:40:35.144Z,58.30
2022-12-01T22:43:27.107Z,71.55
2022-12-01T22:46:34.606Z,64.90
2022-12-01T22:49:22.538Z,69.72
2022-12-01T22:52:29.966Z,61.08
2022-12-01T22:55:16.209Z,58.08
2022-12-01T22:58:13.204Z,65.50
2022-12-01T23:01:17.189Z,62.75
2022-12-01T23:04:24.985Z,61.38
2022-12-01T23:07:32.117Z,64.13
2022-12-01T23:10:23.691Z,57.38
2022-12-01T23:13:14.009Z,64.03
2022-12-01T23:16:05.508Z,64.22
2022-12-01T23:18:56.338Z,58.97
2022-12-01T23:21:42.021Z,66.20
2022-12-01T23:24:32.313Z,57.03
2022-12-01T23:27:19.554Z,60.42
2022-12-01T23:30:07.784Z,64.60
2022-12-01T23:33:24.544Z,66.85
2022-12-01T23:36:25.463Z,64.72
2022-12-01T23:39:13.700Z,69.72
2022-12-01T23:42:00.195Z,66.43
2022-12-01T23:44:46.116Z,61.97
2022-12-01T23:47:31.658Z,68.38
2022-12-01T23:50:23.266Z,62.88
2022-12-01T23:53:32.414Z,58.33
2022-12-01T23:56:24.362Z,58.55
2022-12-01T23:59:13.400Z,58.67
